WIE weather

Wiesbaden Army Airfield
Wiesbaden, Hesse, Germany

Public forecast

Using degrees Celsius for public forecast. Weather courtesy of forecast.io.

METAR (pilot weather report)

Retrieved 2019/07/24 06:56 UTC (48 minutes ago):

ETOU 240656Z AUTO 09006KT 9999 CLR 28/13 A3001 RMK AO2 SLP155 T02750134

TAF (pilot weather forecast)

Retrieved 2019/07/24 03:09 UTC (5 hours ago):

TAF ETOU 240304Z 2403/2509 VRB06KT 9999 SKC QNH2998INS TX35/2414Z TN16/2404Z